sensor_id;sensor_type;location;lat;lon;timestamp;P1;durP1;ratioP1;P2;durP2;ratioP2
76459;SDS011;65299;46.084;18.762;2022-11-20T00:01:46;2.20;;;1.50;;
76459;SDS011;65299;46.084;18.762;2022-11-20T00:04:47;1.88;;;1.52;;
76459;SDS011;65299;46.084;18.762;2022-11-20T00:07:47;1.90;;;1.57;;
76459;SDS011;65299;46.084;18.762;2022-11-20T00:10:47;2.43;;;1.60;;
76459;SDS011;65299;46.084;18.762;2022-11-20T00:13:49;2.00;;;1.50;;
76459;SDS011;65299;46.084;18.762;2022-11-20T00:16:51;2.13;;;1.40;;
76459;SDS011;65299;46.084;18.762;2022-11-20T00:19:51;1.77;;;1.30;;
76459;SDS011;65299;46.084;18.762;2022-11-20T00:22:52;1.80;;;1.30;;
76459;SDS011;65299;46.084;18.762;2022-11-20T00:25:52;1.63;;;1.20;;
76459;SDS011;65299;46.084;18.762;2022-11-20T00:28:54;1.93;;;1.43;;
76459;SDS011;65299;46.084;18.762;2022-11-20T00:31:56;1.95;;;1.50;;
76459;SDS011;65299;46.084;18.762;2022-11-20T00:34:56;1.80;;;1.50;;
76459;SDS011;65299;46.084;18.762;2022-11-20T00:37:57;1.90;;;1.40;;
76459;SDS011;65299;46.084;18.762;2022-11-20T00:40:57;1.65;;;1.40;;
76459;SDS011;65299;46.084;18.762;2022-11-20T00:43:59;2.00;;;1.80;;
76459;SDS011;65299;46.084;18.762;2022-11-20T00:47:00;2.05;;;1.60;;
76459;SDS011;65299;46.084;18.762;2022-11-20T00:50:00;2.50;;;1.57;;
76459;SDS011;65299;46.084;18.762;2022-11-20T00:53:00;2.00;;;1.47;;
76459;SDS011;65299;46.084;18.762;2022-11-20T00:56:02;2.00;;;1.50;;
76459;SDS011;65299;46.084;18.762;2022-11-20T00:59:04;2.00;;;1.50;;
76459;SDS011;65299;46.084;18.762;2022-11-20T01:02:04;2.10;;;1.60;;
76459;SDS011;65299;46.084;18.762;2022-11-20T01:05:05;1.90;;;1.60;;
76459;SDS011;65299;46.084;18.762;2022-11-20T01:08:05;2.50;;;1.60;;
76459;SDS011;65299;46.084;18.762;2022-11-20T01:11:07;2.57;;;1.60;;
76459;SDS011;65299;46.084;18.762;2022-11-20T01:14:10;1.63;;;1.13;;
76459;SDS011;65299;46.084;18.762;2022-11-20T01:17:12;1.92;;;1.27;;
76459;SDS011;65299;46.084;18.762;2022-11-20T01:20:12;2.00;;;1.40;;
76459;SDS011;65299;46.084;18.762;2022-11-20T01:23:13;2.57;;;1.50;;
76459;SDS011;65299;46.084;18.762;2022-11-20T01:26:14;2.30;;;1.40;;
76459;SDS011;65299;46.084;18.762;2022-11-20T01:29:19;1.90;;;1.40;;
76459;SDS011;65299;46.084;18.762;2022-11-20T01:32:21;2.55;;;1.10;;
76459;SDS011;65299;46.084;18.762;2022-11-20T01:35:22;1.67;;;1.50;;
76459;SDS011;65299;46.084;18.762;2022-11-20T01:38:22;1.80;;;1.20;;
76459;SDS011;65299;46.084;18.762;2022-11-20T01:41:23;2.23;;;1.30;;
76459;SDS011;65299;46.084;18.762;2022-11-20T01:44:54;1.90;;;1.50;;
76459;SDS011;65299;46.084;18.762;2022-11-20T01:47:56;1.92;;;1.38;;
76459;SDS011;65299;46.084;18.762;2022-11-20T01:50:57;2.43;;;1.33;;
76459;SDS011;65299;46.084;18.762;2022-11-20T01:53:59;1.83;;;1.48;;
76459;SDS011;65299;46.084;18.762;2022-11-20T01:57:04;2.03;;;1.35;;
76459;SDS011;65299;46.084;18.762;2022-11-20T02:00:09;1.47;;;1.30;;
76459;SDS011;65299;46.084;18.762;2022-11-20T02:03:14;2.58;;;1.60;;
76459;SDS011;65299;46.084;18.762;2022-11-20T02:06:23;1.92;;;1.42;;
76459;SDS011;65299;46.084;18.762;2022-11-20T02:09:27;1.88;;;1.35;;
76459;SDS011;65299;46.084;18.762;2022-11-20T02:12:28;1.92;;;1.50;;
76459;SDS011;65299;46.084;18.762;2022-11-20T02:15:47;2.60;;;1.50;;
76459;SDS011;65299;46.084;18.762;2022-11-20T02:18:48;1.95;;;1.60;;
76459;SDS011;65299;46.084;18.762;2022-11-20T02:25:02;1.60;;;1.20;;
76459;SDS011;65299;46.084;18.762;2022-11-20T02:28:05;1.73;;;1.17;;
76459;SDS011;65299;46.084;18.762;2022-11-20T02:31:06;2.47;;;1.57;;
76459;SDS011;65299;46.084;18.762;2022-11-20T02:34:07;1.40;;;1.23;;
76459;SDS011;65299;46.084;18.762;2022-11-20T02:37:07;1.93;;;1.30;;
76459;SDS011;65299;46.084;18.762;2022-11-20T02:40:08;1.48;;;1.25;;
76459;SDS011;65299;46.084;18.762;2022-11-20T02:43:09;3.03;;;1.30;;
76459;SDS011;65299;46.084;18.762;2022-11-20T02:46:09;2.10;;;1.50;;
76459;SDS011;65299;46.084;18.762;2022-11-20T02:49:10;1.87;;;1.30;;
76459;SDS011;65299;46.084;18.762;2022-11-20T02:52:11;1.83;;;1.30;;
76459;SDS011;65299;46.084;18.762;2022-11-20T02:55:11;2.03;;;1.37;;
76459;SDS011;65299;46.084;18.762;2022-11-20T02:58:12;1.70;;;1.20;;
76459;SDS011;65299;46.084;18.762;2022-11-20T03:01:12;2.00;;;1.30;;
76459;SDS011;65299;46.084;18.762;2022-11-20T03:04:13;3.35;;;1.67;;
76459;SDS011;65299;46.084;18.762;2022-11-20T03:07:13;2.70;;;1.40;;
76459;SDS011;65299;46.084;18.762;2022-11-20T03:10:14;1.85;;;1.45;;
76459;SDS011;65299;46.084;18.762;2022-11-20T03:13:14;2.20;;;1.50;;
76459;SDS011;65299;46.084;18.762;2022-11-20T03:16:16;1.60;;;1.07;;
76459;SDS011;65299;46.084;18.762;2022-11-20T03:19:19;2.53;;;1.67;;
76459;SDS011;65299;46.084;18.762;2022-11-20T03:22:19;1.77;;;1.17;;
76459;SDS011;65299;46.084;18.762;2022-11-20T03:25:20;2.07;;;1.57;;
76459;SDS011;65299;46.084;18.762;2022-11-20T03:28:21;1.70;;;1.25;;
76459;SDS011;65299;46.084;18.762;2022-11-20T03:31:22;1.80;;;1.30;;
76459;SDS011;65299;46.084;18.762;2022-11-20T03:34:25;1.83;;;1.38;;
76459;SDS011;65299;46.084;18.762;2022-11-20T03:37:25;1.60;;;1.30;;
76459;SDS011;65299;46.084;18.762;2022-11-20T03:40:25;1.77;;;1.27;;
76459;SDS011;65299;46.084;18.762;2022-11-20T03:43:26;1.53;;;1.10;;
76459;SDS011;65299;46.084;18.762;2022-11-20T03:46:27;1.80;;;1.37;;
76459;SDS011;65299;46.084;18.762;2022-11-20T03:49:28;1.57;;;1.17;;
76459;SDS011;65299;46.084;18.762;2022-11-20T03:52:28;1.90;;;1.30;;
76459;SDS011;65299;46.084;18.762;2022-11-20T03:55:29;1.60;;;1.20;;
76459;SDS011;65299;46.084;18.762;2022-11-20T03:58:29;1.50;;;1.20;;
76459;SDS011;65299;46.084;18.762;2022-11-20T04:01:30;1.97;;;1.17;;
76459;SDS011;65299;46.084;18.762;2022-11-20T04:04:33;1.85;;;1.33;;
76459;SDS011;65299;46.084;18.762;2022-11-20T04:07:33;1.50;;;1.23;;
76459;SDS011;65299;46.084;18.762;2022-11-20T04:10:34;1.55;;;1.20;;
76459;SDS011;65299;46.084;18.762;2022-11-20T04:13:34;1.50;;;1.20;;
76459;SDS011;65299;46.084;18.762;2022-11-20T04:16:35;2.20;;;1.43;;
76459;SDS011;65299;46.084;18.762;2022-11-20T04:19:36;1.70;;;1.30;;
76459;SDS011;65299;46.084;18.762;2022-11-20T04:22:36;1.60;;;1.10;;
76459;SDS011;65299;46.084;18.762;2022-11-20T04:25:37;1.65;;;1.30;;
76459;SDS011;65299;46.084;18.762;2022-11-20T04:28:37;1.87;;;1.40;;
76459;SDS011;65299;46.084;18.762;2022-11-20T04:31:38;2.05;;;1.25;;
76459;SDS011;65299;46.084;18.762;2022-11-20T04:34:39;1.93;;;1.37;;
76459;SDS011;65299;46.084;18.762;2022-11-20T04:37:39;1.43;;;1.30;;
76459;SDS011;65299;46.084;18.762;2022-11-20T04:40:39;1.73;;;1.27;;
76459;SDS011;65299;46.084;18.762;2022-11-20T04:43:40;1.60;;;1.20;;
76459;SDS011;65299;46.084;18.762;2022-11-20T04:46:41;2.43;;;1.10;;
76459;SDS011;65299;46.084;18.762;2022-11-20T04:49:42;1.73;;;1.20;;
76459;SDS011;65299;46.084;18.762;2022-11-20T04:52:42;1.93;;;1.17;;
76459;SDS011;65299;46.084;18.762;2022-11-20T04:55:43;1.53;;;1.10;;
76459;SDS011;65299;46.084;18.762;2022-11-20T04:58:43;2.28;;;1.40;;
76459;SDS011;65299;46.084;18.762;2022-11-20T05:01:44;1.57;;;1.40;;
76459;SDS011;65299;46.084;18.762;2022-11-20T05:04:44;1.60;;;1.20;;
76459;SDS011;65299;46.084;18.762;2022-11-20T05:07:45;1.45;;;1.15;;
76459;SDS011;65299;46.084;18.762;2022-11-20T05:10:45;1.60;;;1.30;;
76459;SDS011;65299;46.084;18.762;2022-11-20T05:13:45;1.60;;;1.17;;
76459;SDS011;65299;46.084;18.762;2022-11-20T05:16:46;1.58;;;1.10;;
76459;SDS011;65299;46.084;18.762;2022-11-20T05:19:47;1.70;;;1.30;;
76459;SDS011;65299;46.084;18.762;2022-11-20T05:22:47;1.30;;;1.00;;
76459;SDS011;65299;46.084;18.762;2022-11-20T05:25:47;1.53;;;1.20;;
76459;SDS011;65299;46.084;18.762;2022-11-20T05:28:48;1.88;;;1.40;;
76459;SDS011;65299;46.084;18.762;2022-11-20T05:31:49;1.63;;;1.27;;
76459;SDS011;65299;46.084;18.762;2022-11-20T05:34:49;1.33;;;1.20;;
76459;SDS011;65299;46.084;18.762;2022-11-20T05:37:50;1.30;;;1.20;;
76459;SDS011;65299;46.084;18.762;2022-11-20T05:40:50;1.90;;;1.40;;
76459;SDS011;65299;46.084;18.762;2022-11-20T05:43:50;1.87;;;1.20;;
76459;SDS011;65299;46.084;18.762;2022-11-20T05:46:51;1.60;;;1.02;;
76459;SDS011;65299;46.084;18.762;2022-11-20T05:49:52;1.87;;;1.47;;
76459;SDS011;65299;46.084;18.762;2022-11-20T05:52:52;2.60;;;1.48;;
76459;SDS011;65299;46.084;18.762;2022-11-20T05:55:59;1.50;;;1.20;;
76459;SDS011;65299;46.084;18.762;2022-11-20T05:59:01;1.60;;;1.10;;
76459;SDS011;65299;46.084;18.762;2022-11-20T06:02:01;2.03;;;1.30;;
76459;SDS011;65299;46.084;18.762;2022-11-20T06:05:02;1.33;;;1.20;;
76459;SDS011;65299;46.084;18.762;2022-11-20T06:08:02;1.50;;;1.10;;
76459;SDS011;65299;46.084;18.762;2022-11-20T06:11:04;2.10;;;1.30;;
76459;SDS011;65299;46.084;18.762;2022-11-20T06:14:05;1.90;;;1.10;;
76459;SDS011;65299;46.084;18.762;2022-11-20T06:17:05;1.83;;;1.30;;
76459;SDS011;65299;46.084;18.762;2022-11-20T06:20:06;1.00;;;0.83;;
76459;SDS011;65299;46.084;18.762;2022-11-20T06:23:07;1.73;;;1.38;;
76459;SDS011;65299;46.084;18.762;2022-11-20T06:26:08;1.80;;;1.23;;
76459;SDS011;65299;46.084;18.762;2022-11-20T06:29:10;2.33;;;1.50;;
76459;SDS011;65299;46.084;18.762;2022-11-20T06:32:11;1.90;;;1.30;;
76459;SDS011;65299;46.084;18.762;2022-11-20T06:35:11;1.67;;;1.30;;
76459;SDS011;65299;46.084;18.762;2022-11-20T06:38:11;1.63;;;1.23;;
76459;SDS011;65299;46.084;18.762;2022-11-20T06:41:14;1.50;;;1.10;;
76459;SDS011;65299;46.084;18.762;2022-11-20T06:44:16;1.67;;;1.48;;
76459;SDS011;65299;46.084;18.762;2022-11-20T06:47:17;1.73;;;1.30;;
76459;SDS011;65299;46.084;18.762;2022-11-20T06:50:17;1.58;;;1.10;;
76459;SDS011;65299;46.084;18.762;2022-11-20T06:53:17;1.53;;;1.30;;
76459;SDS011;65299;46.084;18.762;2022-11-20T06:56:18;1.30;;;1.07;;
76459;SDS011;65299;46.084;18.762;2022-11-20T06:59:19;1.30;;;1.13;;
76459;SDS011;65299;46.084;18.762;2022-11-20T07:02:19;2.03;;;1.30;;
76459;SDS011;65299;46.084;18.762;2022-11-20T07:05:19;2.03;;;1.20;;
76459;SDS011;65299;46.084;18.762;2022-11-20T07:08:20;1.63;;;1.30;;
76459;SDS011;65299;46.084;18.762;2022-11-20T07:11:20;1.73;;;1.20;;
76459;SDS011;65299;46.084;18.762;2022-11-20T07:14:21;1.40;;;1.13;;
76459;SDS011;65299;46.084;18.762;2022-11-20T07:17:21;1.40;;;1.27;;
76459;SDS011;65299;46.084;18.762;2022-11-20T07:20:22;1.67;;;1.20;;
76459;SDS011;65299;46.084;18.762;2022-11-20T07:23:22;1.63;;;1.30;;
76459;SDS011;65299;46.084;18.762;2022-11-20T07:26:22;2.20;;;1.50;;
76459;SDS011;65299;46.084;18.762;2022-11-20T07:29:23;1.10;;;0.80;;
76459;SDS011;65299;46.084;18.762;2022-11-20T07:32:23;2.30;;;1.20;;
76459;SDS011;65299;46.084;18.762;2022-11-20T07:35:24;1.48;;;1.10;;
76459;SDS011;65299;46.084;18.762;2022-11-20T07:38:25;1.63;;;1.27;;
76459;SDS011;65299;46.084;18.762;2022-11-20T07:41:26;1.40;;;1.07;;
76459;SDS011;65299;46.084;18.762;2022-11-20T07:44:27;1.83;;;1.25;;
76459;SDS011;65299;46.084;18.762;2022-11-20T07:47:28;1.00;;;0.90;;
76459;SDS011;65299;46.084;18.762;2022-11-20T07:50:28;1.47;;;1.13;;
76459;SDS011;65299;46.084;18.762;2022-11-20T07:53:28;1.60;;;1.17;;
76459;SDS011;65299;46.084;18.762;2022-11-20T07:56:29;1.67;;;1.20;;
76459;SDS011;65299;46.084;18.762;2022-11-20T07:59:29;1.70;;;1.20;;
76459;SDS011;65299;46.084;18.762;2022-11-20T08:02:29;1.10;;;0.80;;
76459;SDS011;65299;46.084;18.762;2022-11-20T08:05:30;1.67;;;1.10;;
76459;SDS011;65299;46.084;18.762;2022-11-20T08:08:30;1.33;;;1.00;;
76459;SDS011;65299;46.084;18.762;2022-11-20T08:11:31;1.43;;;1.03;;
76459;SDS011;65299;46.084;18.762;2022-11-20T08:14:50;1.40;;;0.98;;
76459;SDS011;65299;46.084;18.762;2022-11-20T08:17:50;1.73;;;1.00;;
76459;SDS011;65299;46.084;18.762;2022-11-20T08:20:50;1.77;;;1.30;;
76459;SDS011;65299;46.084;18.762;2022-11-20T08:23:51;1.43;;;1.17;;
76459;SDS011;65299;46.084;18.762;2022-11-20T08:26:51;1.40;;;1.00;;
76459;SDS011;65299;46.084;18.762;2022-11-20T08:29:52;2.03;;;1.30;;
76459;SDS011;65299;46.084;18.762;2022-11-20T08:32:53;1.67;;;1.40;;
76459;SDS011;65299;46.084;18.762;2022-11-20T08:35:57;1.40;;;0.80;;
76459;SDS011;65299;46.084;18.762;2022-11-20T08:39:02;1.35;;;1.13;;
76459;SDS011;65299;46.084;18.762;2022-11-20T08:42:06;1.45;;;1.33;;
76459;SDS011;65299;46.084;18.762;2022-11-20T08:45:07;1.63;;;1.20;;
76459;SDS011;65299;46.084;18.762;2022-11-20T08:48:08;1.63;;;1.00;;
76459;SDS011;65299;46.084;18.762;2022-11-20T08:51:08;1.40;;;1.00;;
76459;SDS011;65299;46.084;18.762;2022-11-20T08:54:09;1.40;;;1.03;;
76459;SDS011;65299;46.084;18.762;2022-11-20T08:57:09;1.17;;;0.90;;
76459;SDS011;65299;46.084;18.762;2022-11-20T09:00:10;1.57;;;1.00;;
76459;SDS011;65299;46.084;18.762;2022-11-20T09:03:11;1.30;;;1.17;;
76459;SDS011;65299;46.084;18.762;2022-11-20T09:06:13;1.40;;;1.00;;
76459;SDS011;65299;46.084;18.762;2022-11-20T09:09:14;1.75;;;1.20;;
76459;SDS011;65299;46.084;18.762;2022-11-20T09:12:14;1.33;;;1.10;;
76459;SDS011;65299;46.084;18.762;2022-11-20T09:15:14;1.40;;;1.10;;
76459;SDS011;65299;46.084;18.762;2022-11-20T09:18:15;1.10;;;0.90;;
76459;SDS011;65299;46.084;18.762;2022-11-20T09:21:15;1.40;;;1.10;;
76459;SDS011;65299;46.084;18.762;2022-11-20T09:24:16;1.30;;;0.90;;
76459;SDS011;65299;46.084;18.762;2022-11-20T09:27:17;1.63;;;1.52;;
76459;SDS011;65299;46.084;18.762;2022-11-20T09:30:21;1.40;;;0.97;;
76459;SDS011;65299;46.084;18.762;2022-11-20T09:33:22;1.77;;;1.33;;
76459;SDS011;65299;46.084;18.762;2022-11-20T09:36:22;1.60;;;0.97;;
76459;SDS011;65299;46.084;18.762;2022-11-20T09:39:22;1.70;;;1.20;;
76459;SDS011;65299;46.084;18.762;2022-11-20T09:52:18;1.30;;;1.00;;
76459;SDS011;65299;46.084;18.762;2022-11-20T09:55:21;1.55;;;1.05;;
76459;SDS011;65299;46.084;18.762;2022-11-20T10:01:30;1.65;;;1.23;;
76459;SDS011;65299;46.084;18.762;2022-11-20T10:04:43;1.20;;;0.93;;
76459;SDS011;65299;46.084;18.762;2022-11-20T10:11:18;1.23;;;0.93;;
76459;SDS011;65299;46.084;18.762;2022-11-20T10:18:03;1.48;;;1.10;;
76459;SDS011;65299;46.084;18.762;2022-11-20T10:21:23;1.23;;;1.00;;
76459;SDS011;65299;46.084;18.762;2022-11-20T10:28:06;1.42;;;1.00;;
76459;SDS011;65299;46.084;18.762;2022-11-20T10:31:27;1.13;;;1.00;;
76459;SDS011;65299;46.084;18.762;2022-11-20T10:38:02;1.17;;;0.95;;
76459;SDS011;65299;46.084;18.762;2022-11-20T10:41:16;1.23;;;0.87;;
76459;SDS011;65299;46.084;18.762;2022-11-20T10:44:28;1.95;;;1.20;;
76459;SDS011;65299;46.084;18.762;2022-11-20T10:47:48;1.55;;;1.20;;
76459;SDS011;65299;46.084;18.762;2022-11-20T10:50:55;1.77;;;1.27;;
76459;SDS011;65299;46.084;18.762;2022-11-20T10:57:44;1.27;;;1.08;;
76459;SDS011;65299;46.084;18.762;2022-11-20T11:01:02;1.40;;;1.00;;
76459;SDS011;65299;46.084;18.762;2022-11-20T11:04:06;1.25;;;0.90;;
76459;SDS011;65299;46.084;18.762;2022-11-20T11:07:38;1.17;;;0.83;;
76459;SDS011;65299;46.084;18.762;2022-11-20T11:11:18;1.10;;;0.80;;
76459;SDS011;65299;46.084;18.762;2022-11-20T11:14:15;1.10;;;0.93;;
76459;SDS011;65299;46.084;18.762;2022-11-20T11:17:20;1.38;;;1.10;;
76459;SDS011;65299;46.084;18.762;2022-11-20T11:20:22;1.50;;;1.20;;
76459;SDS011;65299;46.084;18.762;2022-11-20T11:23:39;1.20;;;1.05;;
76459;SDS011;65299;46.084;18.762;2022-11-20T11:26:41;1.10;;;0.90;;
76459;SDS011;65299;46.084;18.762;2022-11-20T11:30:14;1.13;;;0.88;;
76459;SDS011;65299;46.084;18.762;2022-11-20T11:33:20;1.95;;;1.10;;
76459;SDS011;65299;46.084;18.762;2022-11-20T11:36:25;1.20;;;0.90;;
76459;SDS011;65299;46.084;18.762;2022-11-20T11:39:26;1.20;;;0.90;;
76459;SDS011;65299;46.084;18.762;2022-11-20T11:42:28;1.57;;;1.10;;
76459;SDS011;65299;46.084;18.762;2022-11-20T11:45:30;1.17;;;0.82;;
76459;SDS011;65299;46.084;18.762;2022-11-20T11:48:30;1.67;;;1.20;;
76459;SDS011;65299;46.084;18.762;2022-11-20T11:55:07;1.45;;;1.02;;
76459;SDS011;65299;46.084;18.762;2022-11-20T12:05:09;1.35;;;1.00;;
76459;SDS011;65299;46.084;18.762;2022-11-20T12:11:55;1.50;;;1.08;;
76459;SDS011;65299;46.084;18.762;2022-11-20T12:15:04;1.27;;;1.10;;
76459;SDS011;65299;46.084;18.762;2022-11-20T12:18:13;1.67;;;1.00;;
76459;SDS011;65299;46.084;18.762;2022-11-20T12:21:31;1.10;;;0.77;;
76459;SDS011;65299;46.084;18.762;2022-11-20T12:24:54;1.23;;;1.00;;
76459;SDS011;65299;46.084;18.762;2022-11-20T12:45:35;1.20;;;0.85;;
76459;SDS011;65299;46.084;18.762;2022-11-20T13:08:36;1.90;;;1.40;;
76459;SDS011;65299;46.084;18.762;2022-11-20T13:11:41;1.42;;;0.90;;
76459;SDS011;65299;46.084;18.762;2022-11-20T13:15:05;1.27;;;0.90;;
76459;SDS011;65299;46.084;18.762;2022-11-20T13:18:11;1.42;;;1.00;;
76459;SDS011;65299;46.084;18.762;2022-11-20T13:21:55;1.10;;;0.80;;
76459;SDS011;65299;46.084;18.762;2022-11-20T13:24:49;1.30;;;1.02;;
76459;SDS011;65299;46.084;18.762;2022-11-20T13:27:52;1.02;;;0.90;;
76459;SDS011;65299;46.084;18.762;2022-11-20T13:30:54;1.10;;;0.85;;
76459;SDS011;65299;46.084;18.762;2022-11-20T13:33:56;1.10;;;0.80;;
76459;SDS011;65299;46.084;18.762;2022-11-20T13:36:59;1.33;;;0.83;;
76459;SDS011;65299;46.084;18.762;2022-11-20T13:43:20;1.50;;;0.90;;
76459;SDS011;65299;46.084;18.762;2022-11-20T13:46:23;1.00;;;0.80;;
76459;SDS011;65299;46.084;18.762;2022-11-20T13:49:39;1.13;;;1.02;;
76459;SDS011;65299;46.084;18.762;2022-11-20T13:56:05;1.55;;;1.30;;
76459;SDS011;65299;46.084;18.762;2022-11-20T13:59:32;1.10;;;0.88;;
76459;SDS011;65299;46.084;18.762;2022-11-20T14:02:44;1.40;;;1.00;;
76459;SDS011;65299;46.084;18.762;2022-11-20T14:06:25;2.30;;;1.20;;
76459;SDS011;65299;46.084;18.762;2022-11-20T14:09:32;1.67;;;1.30;;
76459;SDS011;65299;46.084;18.762;2022-11-20T14:12:34;1.30;;;1.10;;
76459;SDS011;65299;46.084;18.762;2022-11-20T14:15:34;1.00;;;0.70;;
76459;SDS011;65299;46.084;18.762;2022-11-20T14:18:35;1.13;;;0.95;;
76459;SDS011;65299;46.084;18.762;2022-11-20T14:21:35;1.40;;;1.10;;
76459;SDS011;65299;46.084;18.762;2022-11-20T14:24:35;0.90;;;0.80;;
76459;SDS011;65299;46.084;18.762;2022-11-20T14:27:36;0.88;;;0.70;;
76459;SDS011;65299;46.084;18.762;2022-11-20T14:30:42;1.97;;;1.00;;
76459;SDS011;65299;46.084;18.762;2022-11-20T14:33:45;0.90;;;0.77;;
76459;SDS011;65299;46.084;18.762;2022-11-20T14:36:46;1.70;;;1.02;;
76459;SDS011;65299;46.084;18.762;2022-11-20T14:39:51;1.40;;;0.80;;
76459;SDS011;65299;46.084;18.762;2022-11-20T14:42:54;0.75;;;0.70;;
76459;SDS011;65299;46.084;18.762;2022-11-20T14:45:58;1.33;;;1.03;;
76459;SDS011;65299;46.084;18.762;2022-11-20T14:49:01;1.23;;;0.88;;
76459;SDS011;65299;46.084;18.762;2022-11-20T14:52:20;1.52;;;1.00;;
76459;SDS011;65299;46.084;18.762;2022-11-20T14:55:25;1.23;;;0.80;;
76459;SDS011;65299;46.084;18.762;2022-11-20T14:58:32;1.30;;;0.82;;
76459;SDS011;65299;46.084;18.762;2022-11-20T15:01:34;1.43;;;1.00;;
76459;SDS011;65299;46.084;18.762;2022-11-20T15:04:44;1.10;;;0.98;;
76459;SDS011;65299;46.084;18.762;2022-11-20T15:08:06;1.30;;;0.98;;
76459;SDS011;65299;46.084;18.762;2022-11-20T15:11:18;1.40;;;0.93;;
76459;SDS011;65299;46.084;18.762;2022-11-20T15:14:20;1.00;;;0.90;;
76459;SDS011;65299;46.084;18.762;2022-11-20T15:17:21;1.40;;;0.90;;
76459;SDS011;65299;46.084;18.762;2022-11-20T15:20:22;1.20;;;1.03;;
76459;SDS011;65299;46.084;18.762;2022-11-20T15:23:26;1.50;;;1.00;;
76459;SDS011;65299;46.084;18.762;2022-11-20T15:26:27;0.75;;;0.70;;
76459;SDS011;65299;46.084;18.762;2022-11-20T15:29:28;1.03;;;0.90;;
76459;SDS011;65299;46.084;18.762;2022-11-20T15:32:28;1.43;;;0.80;;
76459;SDS011;65299;46.084;18.762;2022-11-20T15:35:29;1.27;;;1.17;;
76459;SDS011;65299;46.084;18.762;2022-11-20T15:38:29;1.25;;;0.80;;
76459;SDS011;65299;46.084;18.762;2022-11-20T15:41:29;1.27;;;0.97;;
76459;SDS011;65299;46.084;18.762;2022-11-20T15:44:30;1.07;;;0.87;;
76459;SDS011;65299;46.084;18.762;2022-11-20T15:47:31;1.03;;;0.80;;
76459;SDS011;65299;46.084;18.762;2022-11-20T15:50:35;1.50;;;0.80;;
76459;SDS011;65299;46.084;18.762;2022-11-20T15:53:38;1.23;;;0.90;;
76459;SDS011;65299;46.084;18.762;2022-11-20T15:56:40;1.10;;;0.90;;
76459;SDS011;65299;46.084;18.762;2022-11-20T15:59:40;0.90;;;0.70;;
76459;SDS011;65299;46.084;18.762;2022-11-20T16:02:41;1.27;;;0.80;;
76459;SDS011;65299;46.084;18.762;2022-11-20T16:05:42;1.13;;;0.90;;
76459;SDS011;65299;46.084;18.762;2022-11-20T16:08:43;1.63;;;1.10;;
76459;SDS011;65299;46.084;18.762;2022-11-20T16:11:43;0.80;;;0.70;;
76459;SDS011;65299;46.084;18.762;2022-11-20T16:14:44;1.55;;;1.00;;
76459;SDS011;65299;46.084;18.762;2022-11-20T16:18:03;1.67;;;0.90;;
76459;SDS011;65299;46.084;18.762;2022-11-20T16:21:03;0.80;;;0.80;;
76459;SDS011;65299;46.084;18.762;2022-11-20T16:24:04;1.10;;;1.00;;
76459;SDS011;65299;46.084;18.762;2022-11-20T16:27:06;1.42;;;1.10;;
76459;SDS011;65299;46.084;18.762;2022-11-20T16:30:06;1.30;;;0.83;;
76459;SDS011;65299;46.084;18.762;2022-11-20T16:33:11;1.10;;;0.80;;
76459;SDS011;65299;46.084;18.762;2022-11-20T16:36:14;1.30;;;0.80;;
76459;SDS011;65299;46.084;18.762;2022-11-20T16:39:15;1.00;;;0.70;;
76459;SDS011;65299;46.084;18.762;2022-11-20T16:42:15;1.27;;;0.83;;
76459;SDS011;65299;46.084;18.762;2022-11-20T16:45:16;1.73;;;0.93;;
76459;SDS011;65299;46.084;18.762;2022-11-20T16:48:16;1.20;;;0.90;;
76459;SDS011;65299;46.084;18.762;2022-11-20T16:51:17;0.97;;;0.70;;
76459;SDS011;65299;46.084;18.762;2022-11-20T16:54:17;0.80;;;0.70;;
76459;SDS011;65299;46.084;18.762;2022-11-20T16:57:17;1.33;;;1.00;;
76459;SDS011;65299;46.084;18.762;2022-11-20T17:00:18;0.80;;;0.73;;
76459;SDS011;65299;46.084;18.762;2022-11-20T17:03:18;1.20;;;0.80;;
76459;SDS011;65299;46.084;18.762;2022-11-20T17:06:21;1.33;;;0.80;;
76459;SDS011;65299;46.084;18.762;2022-11-20T17:09:22;1.08;;;0.98;;
76459;SDS011;65299;46.084;18.762;2022-11-20T17:12:23;1.20;;;0.90;;
76459;SDS011;65299;46.084;18.762;2022-11-20T17:15:23;1.00;;;0.70;;
76459;SDS011;65299;46.084;18.762;2022-11-20T17:18:23;1.20;;;1.00;;
76459;SDS011;65299;46.084;18.762;2022-11-20T17:21:27;1.38;;;0.98;;
76459;SDS011;65299;46.084;18.762;2022-11-20T17:24:28;1.35;;;0.80;;
76459;SDS011;65299;46.084;18.762;2022-11-20T17:27:29;1.27;;;1.00;;
76459;SDS011;65299;46.084;18.762;2022-11-20T17:30:29;1.60;;;0.83;;
76459;SDS011;65299;46.084;18.762;2022-11-20T17:33:30;1.23;;;0.80;;
76459;SDS011;65299;46.084;18.762;2022-11-20T17:36:30;1.07;;;0.97;;
76459;SDS011;65299;46.084;18.762;2022-11-20T17:39:31;1.58;;;1.38;;
76459;SDS011;65299;46.084;18.762;2022-11-20T17:42:32;1.10;;;0.90;;
76459;SDS011;65299;46.084;18.762;2022-11-20T17:45:35;0.82;;;0.55;;
76459;SDS011;65299;46.084;18.762;2022-11-20T17:48:36;0.90;;;0.80;;
76459;SDS011;65299;46.084;18.762;2022-11-20T17:51:36;1.20;;;0.68;;
76459;SDS011;65299;46.084;18.762;2022-11-20T17:54:37;1.03;;;0.77;;
76459;SDS011;65299;46.084;18.762;2022-11-20T17:57:37;1.20;;;0.70;;
76459;SDS011;65299;46.084;18.762;2022-11-20T18:00:55;1.15;;;0.80;;
76459;SDS011;65299;46.084;18.762;2022-11-20T18:04:04;1.13;;;0.65;;
76459;SDS011;65299;46.084;18.762;2022-11-20T18:07:04;0.80;;;0.53;;
76459;SDS011;65299;46.084;18.762;2022-11-20T18:10:05;1.23;;;0.68;;
76459;SDS011;65299;46.084;18.762;2022-11-20T18:13:06;1.83;;;1.30;;
76459;SDS011;65299;46.084;18.762;2022-11-20T18:16:07;1.00;;;0.68;;
76459;SDS011;65299;46.084;18.762;2022-11-20T18:19:08;1.10;;;0.80;;
76459;SDS011;65299;46.084;18.762;2022-11-20T18:22:13;1.27;;;0.82;;
76459;SDS011;65299;46.084;18.762;2022-11-20T18:25:15;1.23;;;0.93;;
76459;SDS011;65299;46.084;18.762;2022-11-20T18:28:16;1.20;;;0.73;;
76459;SDS011;65299;46.084;18.762;2022-11-20T18:31:18;1.23;;;0.80;;
76459;SDS011;65299;46.084;18.762;2022-11-20T18:34:19;1.10;;;0.90;;
76459;SDS011;65299;46.084;18.762;2022-11-20T18:37:19;1.53;;;1.00;;
76459;SDS011;65299;46.084;18.762;2022-11-20T18:40:20;1.47;;;1.00;;
76459;SDS011;65299;46.084;18.762;2022-11-20T18:43:20;1.70;;;1.10;;
76459;SDS011;65299;46.084;18.762;2022-11-20T18:46:39;0.98;;;0.73;;
76459;SDS011;65299;46.084;18.762;2022-11-20T18:49:42;1.33;;;0.98;;
76459;SDS011;65299;46.084;18.762;2022-11-20T18:52:45;1.30;;;0.70;;
76459;SDS011;65299;46.084;18.762;2022-11-20T18:55:46;1.00;;;0.80;;
76459;SDS011;65299;46.084;18.762;2022-11-20T18:58:47;0.97;;;0.80;;
76459;SDS011;65299;46.084;18.762;2022-11-20T19:01:48;1.33;;;0.90;;
76459;SDS011;65299;46.084;18.762;2022-11-20T19:04:49;1.02;;;0.65;;
76459;SDS011;65299;46.084;18.762;2022-11-20T19:07:49;1.17;;;0.90;;
76459;SDS011;65299;46.084;18.762;2022-11-20T19:10:50;1.00;;;0.63;;
76459;SDS011;65299;46.084;18.762;2022-11-20T19:13:50;0.82;;;0.80;;
76459;SDS011;65299;46.084;18.762;2022-11-20T19:16:51;1.40;;;1.00;;
76459;SDS011;65299;46.084;18.762;2022-11-20T19:19:51;1.10;;;0.77;;
76459;SDS011;65299;46.084;18.762;2022-11-20T19:22:53;1.48;;;0.90;;
76459;SDS011;65299;46.084;18.762;2022-11-20T19:25:57;0.83;;;0.60;;
76459;SDS011;65299;46.084;18.762;2022-11-20T19:28:58;1.55;;;0.93;;
76459;SDS011;65299;46.084;18.762;2022-11-20T19:31:58;1.33;;;0.90;;
76459;SDS011;65299;46.084;18.762;2022-11-20T19:34:59;1.13;;;0.77;;
76459;SDS011;65299;46.084;18.762;2022-11-20T19:37:59;1.00;;;0.80;;